createdAt,value
2023-01-23T00:00:49.923Z,1030.28
2023-01-23T00:01:49.924Z,1030.25
2023-01-23T00:02:49.914Z,1030.21
2023-01-23T00:03:50.164Z,1030.26
2023-01-23T00:04:49.901Z,1030.26
2023-01-23T00:05:49.899Z,1030.24
2023-01-23T00:06:49.885Z,1030.20
2023-01-23T00:07:49.889Z,1030.23
2023-01-23T00:08:49.885Z,1030.29
2023-01-23T00:09:49.884Z,1030.22
2023-01-23T00:10:49.865Z,1030.23
2023-01-23T00:11:49.864Z,1030.22
2023-01-23T00:12:49.979Z,1030.26
2023-01-23T00:13:49.852Z,1030.24
2023-01-23T00:14:49.845Z,1030.24
2023-01-23T00:15:49.904Z,1030.30
2023-01-23T00:16:50.160Z,1030.27
2023-01-23T00:17:49.831Z,1030.27
2023-01-23T00:18:49.820Z,1030.27
2023-01-23T00:19:49.822Z,1030.30
2023-01-23T00:20:49.813Z,1030.34
2023-01-23T00:21:49.807Z,1030.32
2023-01-23T00:22:49.813Z,1030.29
2023-01-23T00:23:49.813Z,1030.31
2023-01-23T00:24:49.794Z,1030.25
2023-01-23T00:25:49.792Z,1030.23
2023-01-23T00:26:49.796Z,1030.24
2023-01-23T00:27:49.779Z,1030.26
2023-01-23T00:28:49.899Z,1030.25
2023-01-23T00:29:49.768Z,1030.29
2023-01-23T00:30:49.944Z,1030.28
2023-01-23T00:31:49.855Z,1030.28
2023-01-23T00:32:49.757Z,1030.26
2023-01-23T00:33:49.751Z,1030.31
2023-01-23T00:34:49.758Z,1030.32
2023-01-23T00:35:49.767Z,1030.30
2023-01-23T00:36:49.761Z,1030.25
2023-01-23T00:37:49.830Z,1030.29
2023-01-23T00:38:49.735Z,1030.28
2023-01-23T00:39:49.718Z,1030.30
2023-01-23T00:40:49.712Z,1030.32
2023-01-23T00:41:49.706Z,1030.36
2023-01-23T00:42:49.699Z,1030.30
2023-01-23T00:43:49.694Z,1030.31
2023-01-23T00:44:49.808Z,1030.29
2023-01-23T00:45:49.684Z,1030.27
2023-01-23T00:46:49.676Z,1030.26
2023-01-23T00:47:49.673Z,1030.24
2023-01-23T00:48:49.672Z,1030.26
2023-01-23T00:49:49.664Z,1030.28
2023-01-23T00:50:49.750Z,1030.29
2023-01-23T00:51:49.657Z,1030.31
2023-01-23T00:52:49.644Z,1030.33
2023-01-23T00:53:49.644Z,1030.33
2023-01-23T00:54:49.634Z,1030.35
2023-01-23T00:55:49.632Z,1030.32
2023-01-23T00:56:49.641Z,1030.38
2023-01-23T00:57:49.624Z,1030.41
2023-01-23T00:58:49.615Z,1030.38
2023-01-23T00:59:49.616Z,1030.44
2023-01-23T01:00:49.734Z,1030.41
2023-01-23T01:01:49.653Z,1030.45
2023-01-23T01:02:49.656Z,1030.46
2023-01-23T01:03:49.591Z,1030.43
2023-01-23T01:04:49.586Z,1030.43
2023-01-23T01:05:49.578Z,1030.50
2023-01-23T01:06:49.569Z,1030.53
2023-01-23T01:07:49.576Z,1030.56
2023-01-23T01:08:49.561Z,1030.57
2023-01-23T01:09:49.562Z,1030.57
2023-01-23T01:10:49.568Z,1030.59
2023-01-23T01:11:49.554Z,1030.63
2023-01-23T01:12:49.540Z,1030.63
2023-01-23T01:13:49.542Z,1030.62
2023-01-23T01:14:49.531Z,1030.63
2023-01-23T01:15:49.548Z,1030.65
2023-01-23T01:16:49.651Z,1030.68
2023-01-23T01:17:49.511Z,1030.67
2023-01-23T01:18:49.511Z,1030.65
2023-01-23T01:19:49.513Z,1030.68
2023-01-23T01:20:49.520Z,1030.69
2023-01-23T01:21:49.499Z,1030.70
2023-01-23T01:22:49.492Z,1030.70
2023-01-23T01:23:49.485Z,1030.69
2023-01-23T01:24:49.482Z,1030.67
2023-01-23T01:25:49.483Z,1030.64
2023-01-23T01:26:49.464Z,1030.67
2023-01-23T01:27:49.471Z,1030.66
2023-01-23T01:28:49.456Z,1030.68
2023-01-23T01:29:49.453Z,1030.69
2023-01-23T01:30:49.466Z,1030.70
2023-01-23T01:31:49.531Z,1030.70
2023-01-23T01:32:49.550Z,1030.72
2023-01-23T01:33:49.442Z,1030.70
2023-01-23T01:34:49.431Z,1030.73
2023-01-23T01:35:49.431Z,1030.72
2023-01-23T01:36:49.415Z,1030.75
2023-01-23T01:37:49.416Z,1030.73
2023-01-23T01:38:49.403Z,1030.74
2023-01-23T01:39:49.405Z,1030.73
2023-01-23T01:40:49.389Z,1030.73
2023-01-23T01:41:49.387Z,1030.71
2023-01-23T01:42:49.384Z,1030.77
2023-01-23T01:43:49.456Z,1030.83
2023-01-23T01:44:49.372Z,1030.75
2023-01-23T01:45:49.368Z,1030.77
2023-01-23T01:46:49.398Z,1030.76
2023-01-23T01:47:49.358Z,1030.78
2023-01-23T01:48:49.477Z,1030.80
2023-01-23T01:49:49.353Z,1030.84
2023-01-23T01:50:49.384Z,1030.83
2023-01-23T01:51:49.342Z,1030.81
2023-01-23T01:52:49.338Z,1030.82
2023-01-23T01:53:49.333Z,1030.83
2023-01-23T01:54:49.322Z,1030.81
2023-01-23T01:55:49.317Z,1030.81
2023-01-23T01:56:49.314Z,1030.81
2023-01-23T01:57:49.306Z,1030.78
2023-01-23T01:58:49.294Z,1030.74
2023-01-23T01:59:49.297Z,1030.76
2023-01-23T02:00:49.359Z,1030.76
2023-01-23T02:01:49.317Z,1030.81
2023-01-23T02:02:49.275Z,1030.81
2023-01-23T02:03:49.273Z,1030.86
2023-01-23T02:04:49.390Z,1030.80
2023-01-23T02:05:49.269Z,1030.81
2023-01-23T02:06:49.256Z,1030.85
2023-01-23T02:07:49.255Z,1030.82
2023-01-23T02:08:49.244Z,1030.84
2023-01-23T02:09:49.259Z,1030.84
2023-01-23T02:10:49.232Z,1030.86
2023-01-23T02:11:49.232Z,1030.88
2023-01-23T02:12:49.232Z,1030.88
2023-01-23T02:13:49.230Z,1030.88
2023-01-23T02:14:49.211Z,1030.89
2023-01-23T02:15:49.213Z,1030.94
2023-01-23T02:16:49.203Z,1030.92
2023-01-23T02:17:49.206Z,1030.91
2023-01-23T02:18:49.209Z,1030.89
2023-01-23T02:19:49.191Z,1030.90
2023-01-23T02:20:49.306Z,1030.93
2023-01-23T02:21:49.185Z,1030.87
2023-01-23T02:22:49.171Z,1030.89
2023-01-23T02:23:49.173Z,1030.85
2023-01-23T02:24:49.165Z,1030.85
2023-01-23T02:25:49.157Z,1030.88
2023-01-23T02:26:49.153Z,1030.86
2023-01-23T02:27:49.163Z,1030.86
2023-01-23T02:28:49.136Z,1030.90
2023-01-23T02:29:49.135Z,1030.90
2023-01-23T02:30:49.168Z,1030.89
2023-01-23T02:31:49.184Z,1030.90
2023-01-23T02:32:49.116Z,1030.87
2023-01-23T02:33:49.116Z,1030.87
2023-01-23T02:34:49.106Z,1030.88
2023-01-23T02:35:49.110Z,1030.85
2023-01-23T02:36:49.212Z,1030.85
2023-01-23T02:37:49.093Z,1030.90
2023-01-23T02:38:49.089Z,1030.95
2023-01-23T02:39:49.088Z,1030.91
2023-01-23T02:40:49.086Z,1030.94
2023-01-23T02:41:49.069Z,1030.91
2023-01-23T02:42:49.061Z,1030.97
2023-01-23T02:43:49.066Z,1030.95
2023-01-23T02:44:49.055Z,1030.95
2023-01-23T02:45:49.051Z,1030.98
2023-01-23T02:46:49.044Z,1030.97
2023-01-23T02:47:49.037Z,1030.93
2023-01-23T02:48:49.029Z,1030.97
2023-01-23T02:49:49.032Z,1030.91
2023-01-23T02:50:49.117Z,1030.99
2023-01-23T02:51:49.022Z,1031.01
2023-01-23T02:52:49.129Z,1031.00
2023-01-23T02:53:49.007Z,1031.05
2023-01-23T02:54:48.997Z,1031.06
2023-01-23T02:55:49.000Z,1031.12
2023-01-23T02:56:48.995Z,1031.15
2023-01-23T02:57:49.289Z,1031.15
2023-01-23T02:58:48.997Z,1031.18
2023-01-23T02:59:48.979Z,1031.13
2023-01-23T03:00:48.987Z,1031.19
2023-01-23T03:01:48.993Z,1031.19
2023-01-23T03:02:48.967Z,1031.25
2023-01-23T03:03:48.959Z,1031.23
2023-01-23T03:04:48.946Z,1031.23
2023-01-23T03:05:48.948Z,1031.23
2023-01-23T03:06:48.948Z,1031.21
2023-01-23T03:07:48.968Z,1031.25
2023-01-23T03:08:49.056Z,1031.26
2023-01-23T03:09:48.927Z,1031.22
2023-01-23T03:10:48.916Z,1031.25
2023-01-23T03:11:48.915Z,1031.29
2023-01-23T03:12:48.915Z,1031.26
2023-01-23T03:13:48.912Z,1031.29
2023-01-23T03:14:48.909Z,1031.29
2023-01-23T03:15:48.897Z,1031.29
2023-01-23T03:16:48.883Z,1031.25
2023-01-23T03:17:48.897Z,1031.31
2023-01-23T03:18:54.233Z,1031.27
2023-01-23T03:19:48.876Z,1031.27
2023-01-23T03:20:48.868Z,1031.35
2023-01-23T03:21:48.864Z,1031.32
2023-01-23T03:22:48.856Z,1031.36
2023-01-23T03:23:48.880Z,1031.36
2023-01-23T03:24:48.966Z,1031.35
2023-01-23T03:25:48.855Z,1031.33
2023-01-23T03:26:48.864Z,1031.33
2023-01-23T03:27:48.830Z,1031.32
2023-01-23T03:28:48.830Z,1031.29
2023-01-23T03:29:48.825Z,1031.36
2023-01-23T03:30:48.858Z,1031.32
2023-01-23T03:31:48.907Z,1031.34
2023-01-23T03:32:48.805Z,1031.36
2023-01-23T03:33:48.804Z,1031.33
2023-01-23T03:34:48.789Z,1031.37
2023-01-23T03:35:48.805Z,1031.35
2023-01-23T03:36:48.782Z,1031.39
2023-01-23T03:37:48.776Z,1031.42
2023-01-23T03:38:48.769Z,1031.45
2023-01-23T03:39:48.771Z,1031.44
2023-01-23T03:40:48.882Z,1031.48
2023-01-23T03:41:48.763Z,1031.48
2023-01-23T03:42:48.747Z,1031.49
2023-01-23T03:43:48.749Z,1031.50
2023-01-23T03:44:48.740Z,1031.57
2023-01-23T03:45:48.742Z,1031.59
2023-01-23T03:46:48.727Z,1031.54
2023-01-23T03:47:48.723Z,1031.53
2023-01-23T03:48:48.722Z,1031.54
2023-01-23T03:49:48.713Z,1031.55
2023-01-23T03:50:48.786Z,1031.58
2023-01-23T03:51:48.698Z,1031.58
2023-01-23T03:52:48.698Z,1031.59
2023-01-23T03:53:48.691Z,1031.61
2023-01-23T03:54:48.698Z,1031.59
2023-01-23T03:55:48.681Z,1031.64
2023-01-23T03:56:48.793Z,1031.65
2023-01-23T03:57:48.673Z,1031.64
2023-01-23T03:58:48.670Z,1031.66
2023-01-23T03:59:48.658Z,1031.69
2023-01-23T04:00:48.698Z,1031.65
2023-01-23T04:01:48.647Z,1031.71
2023-01-23T04:02:48.682Z,1031.70
2023-01-23T04:03:48.645Z,1031.68
2023-01-23T04:04:48.638Z,1031.74
2023-01-23T04:05:48.630Z,1031.73
2023-01-23T04:06:48.626Z,1031.73
2023-01-23T04:07:48.615Z,1031.74
2023-01-23T04:08:48.621Z,1031.74
2023-01-23T04:09:48.606Z,1031.74
2023-01-23T04:10:48.614Z,1031.74
2023-01-23T04:11:48.597Z,1031.75
2023-01-23T04:12:48.733Z,1031.74
2023-01-23T04:13:48.584Z,1031.79
2023-01-23T04:14:48.583Z,1031.78
2023-01-23T04:15:48.575Z,1031.78
2023-01-23T04:16:48.608Z,1031.78
2023-01-23T04:17:48.564Z,1031.80
2023-01-23T04:18:48.565Z,1031.82
2023-01-23T04:19:48.551Z,1031.81
2023-01-23T04:20:48.563Z,1031.80
2023-01-23T04:21:48.542Z,1031.81
2023-01-23T04:22:48.541Z,1031.81
2023-01-23T04:23:48.531Z,1031.87
2023-01-23T04:24:48.535Z,1031.84
2023-01-23T04:25:48.519Z,1031.85
2023-01-23T04:26:48.524Z,1031.85
2023-01-23T04:27:48.513Z,1031.85
2023-01-23T04:28:48.629Z,1031.85
2023-01-23T04:29:48.499Z,1031.84
2023-01-23T04:30:48.567Z,1031.81
2023-01-23T04:31:48.567Z,1031.83
2023-01-23T04:32:48.487Z,1031.85
2023-01-23T04:33:48.480Z,1031.82
2023-01-23T04:34:48.477Z,1031.79
2023-01-23T04:35:48.467Z,1031.81
2023-01-23T04:36:48.472Z,1031.83
2023-01-23T04:37:48.460Z,1031.79
2023-01-23T04:38:48.458Z,1031.77
2023-01-23T04:39:48.448Z,1031.81
2023-01-23T04:40:48.451Z,1031.83
2023-01-23T04:41:48.440Z,1031.83
2023-01-23T04:42:48.430Z,1031.84
2023-01-23T04:43:48.431Z,1031.89
2023-01-23T04:44:48.445Z,1031.91
2023-01-23T04:45:48.457Z,1031.91
2023-01-23T04:46:48.413Z,1031.89
2023-01-23T04:47:48.403Z,1031.90
2023-01-23T04:48:48.968Z,1031.91
2023-01-23T04:49:48.398Z,1031.89
2023-01-23T04:50:48.438Z,1031.87
2023-01-23T04:51:48.487Z,1031.92
2023-01-23T04:52:48.383Z,1031.90
2023-01-23T04:53:48.384Z,1031.90
2023-01-23T04:54:48.372Z,1031.96
2023-01-23T04:55:48.370Z,1031.99
2023-01-23T04:56:48.366Z,1031.97
2023-01-23T04:57:48.353Z,1031.96
2023-01-23T04:58:48.348Z,1032.00
2023-01-23T04:59:48.342Z,1031.94
2023-01-23T05:00:48.460Z,1031.98
2023-01-23T05:01:48.333Z,1031.98
2023-01-23T05:02:48.447Z,1032.00
2023-01-23T05:03:48.326Z,1032.02
2023-01-23T05:04:48.323Z,1032.04
2023-01-23T05:05:48.318Z,1032.02
2023-01-23T05:06:48.311Z,1032.02
2023-01-23T05:07:48.298Z,1031.98
2023-01-23T05:08:49.145Z,1032.00
2023-01-23T05:09:48.291Z,1032.02
2023-01-23T05:10:48.294Z,1032.00
2023-01-23T05:11:48.279Z,1032.00
2023-01-23T05:12:48.284Z,1031.98
2023-01-23T05:13:48.266Z,1031.99
2023-01-23T05:14:48.269Z,1031.95
2023-01-23T05:15:48.323Z,1031.93
2023-01-23T05:16:48.391Z,1031.94
2023-01-23T05:17:48.249Z,1031.94
2023-01-23T05:18:48.252Z,1031.91
2023-01-23T05:19:48.239Z,1031.91
2023-01-23T05:20:48.240Z,1031.96
2023-01-23T05:21:48.225Z,1031.94
2023-01-23T05:22:48.223Z,1031.96
2023-01-23T05:23:48.216Z,1031.95
2023-01-23T05:24:48.216Z,1031.96
2023-01-23T05:25:48.209Z,1031.95
2023-01-23T05:26:48.206Z,1031.93
2023-01-23T05:27:48.202Z,1031.94
2023-01-23T05:28:48.196Z,1031.95
2023-01-23T05:29:48.184Z,1031.91
2023-01-23T05:30:48.350Z,1031.95
2023-01-23T05:31:48.223Z,1031.97
2023-01-23T05:32:48.291Z,1031.95
2023-01-23T05:33:48.162Z,1031.94
2023-01-23T05:34:48.171Z,1031.95
2023-01-23T05:35:48.153Z,1032.01
2023-01-23T05:36:48.152Z,1031.97
2023-01-23T05:37:48.144Z,1031.96
2023-01-23T05:38:48.142Z,1031.97
2023-01-23T05:39:48.131Z,1031.99
2023-01-23T05:40:48.129Z,1031.93
2023-01-23T05:41:48.125Z,1031.97
2023-01-23T05:42:48.130Z,1031.96
2023-01-23T05:43:48.115Z,1032.01
2023-01-23T05:44:48.109Z,1031.96
2023-01-23T05:45:48.122Z,1031.97
2023-01-23T05:46:48.099Z,1031.97
2023-01-23T05:47:48.097Z,1032.00
2023-01-23T05:48:48.211Z,1032.00
2023-01-23T05:49:48.080Z,1032.02
2023-01-23T05:50:48.079Z,1032.01
2023-01-23T05:51:48.076Z,1032.07
2023-01-23T05:52:48.069Z,1032.05
2023-01-23T05:53:48.079Z,1032.07
2023-01-23T05:54:48.059Z,1032.05
2023-01-23T05:55:48.051Z,1032.08
2023-01-23T05:56:48.044Z,1032.10
2023-01-23T05:57:48.050Z,1032.14
2023-01-23T05:58:48.040Z,1032.15
2023-01-23T05:59:48.027Z,1032.17
2023-01-23T06:00:48.029Z,1032.19
2023-01-23T06:01:48.012Z,1032.22
2023-01-23T06:02:48.094Z,1032.16
2023-01-23T06:03:48.035Z,1032.18
2023-01-23T06:04:48.126Z,1032.22
2023-01-23T06:05:47.993Z,1032.23
2023-01-23T06:06:47.994Z,1032.28
2023-01-23T06:07:47.995Z,1032.27
2023-01-23T06:08:47.984Z,1032.32
2023-01-23T06:09:47.984Z,1032.35
2023-01-23T06:10:47.982Z,1032.35
2023-01-23T06:11:47.969Z,1032.40
2023-01-23T06:12:47.962Z,1032.40
2023-01-23T06:13:47.961Z,1032.38
2023-01-23T06:14:48.026Z,1032.40
2023-01-23T06:15:47.994Z,1032.42
2023-01-23T06:16:47.943Z,1032.40
2023-01-23T06:17:48.038Z,1032.45
2023-01-23T06:18:47.944Z,1032.42
2023-01-23T06:19:48.020Z,1032.45
2023-01-23T06:20:48.068Z,1032.43
2023-01-23T06:21:47.908Z,1032.46
2023-01-23T06:22:47.921Z,1032.49
2023-01-23T06:23:47.917Z,1032.50
2023-01-23T06:24:47.899Z,1032.51
2023-01-23T06:25:47.900Z,1032.53
2023-01-23T06:26:47.898Z,1032.51
2023-01-23T06:27:47.883Z,1032.49
2023-01-23T06:28:47.885Z,1032.50
2023-01-23T06:29:47.882Z,1032.47
2023-01-23T06:30:48.017Z,1032.48
2023-01-23T06:31:47.954Z,1032.47
2023-01-23T06:32:47.855Z,1032.51
2023-01-23T06:33:47.853Z,1032.54
2023-01-23T06:34:47.854Z,1032.52
2023-01-23T06:35:47.852Z,1032.58
2023-01-23T06:36:47.964Z,1032.58
2023-01-23T06:37:47.840Z,1032.58
2023-01-23T06:38:47.835Z,1032.56
2023-01-23T06:39:47.821Z,1032.59
2023-01-23T06:40:47.815Z,1032.56
2023-01-23T06:41:47.814Z,1032.55
2023-01-23T06:42:47.815Z,1032.53
2023-01-23T06:43:47.794Z,1032.55
2023-01-23T06:44:47.800Z,1032.54
2023-01-23T06:45:47.792Z,1032.59
2023-01-23T06:46:47.863Z,1032.58
2023-01-23T06:47:47.782Z,1032.62
2023-01-23T06:48:47.787Z,1032.64
2023-01-23T06:49:47.766Z,1032.65
2023-01-23T06:50:47.764Z,1032.68
2023-01-23T06:51:47.771Z,1032.70
2023-01-23T06:52:47.870Z,1032.73
2023-01-23T06:53:47.762Z,1032.71
2023-01-23T06:54:47.752Z,1032.74
2023-01-23T06:55:47.761Z,1032.69
2023-01-23T06:56:47.732Z,1032.73
2023-01-23T06:57:47.734Z,1032.73
2023-01-23T06:58:47.717Z,1032.69
2023-01-23T06:59:47.711Z,1032.67
2023-01-23T07:00:47.712Z,1032.63
2023-01-23T07:01:47.760Z,1032.67
2023-01-23T07:02:47.704Z,1032.69
2023-01-23T07:03:47.701Z,1032.72
2023-01-23T07:04:47.689Z,1032.72
2023-01-23T07:05:47.681Z,1032.81
2023-01-23T07:06:47.686Z,1032.77
2023-01-23T07:07:47.674Z,1032.80
2023-01-23T07:08:47.789Z,1032.84
2023-01-23T07:09:47.663Z,1032.86
2023-01-23T07:10:47.657Z,1032.81
2023-01-23T07:11:47.656Z,1032.80
2023-01-23T07:12:47.644Z,1032.81
2023-01-23T07:13:47.646Z,1032.78
2023-01-23T07:14:47.638Z,1032.84
2023-01-23T07:15:47.755Z,1032.78
2023-01-23T07:16:47.633Z,1032.82
2023-01-23T07:17:47.615Z,1032.82
2023-01-23T07:18:47.615Z,1032.85
2023-01-23T07:19:47.604Z,1032.87
2023-01-23T07:20:47.600Z,1032.87
2023-01-23T07:21:47.602Z,1032.89
2023-01-23T07:22:47.588Z,1032.91
2023-01-23T07:23:47.587Z,1032.90
2023-01-23T07:24:47.705Z,1032.92
2023-01-23T07:25:47.569Z,1032.95
2023-01-23T07:26:47.579Z,1032.91
2023-01-23T07:27:47.564Z,1032.94
2023-01-23T07:28:47.563Z,1032.91
2023-01-23T07:29:47.548Z,1032.94
2023-01-23T07:30:47.591Z,1032.98
2023-01-23T07:31:47.591Z,1032.96
2023-01-23T07:32:47.540Z,1032.97
2023-01-23T07:33:47.528Z,1032.92
2023-01-23T07:34:47.524Z,1032.96
2023-01-23T07:35:47.518Z,1032.93
2023-01-23T07:36:47.519Z,1032.94
2023-01-23T07:37:47.509Z,1032.88
2023-01-23T07:38:47.521Z,1032.87
2023-01-23T07:39:47.506Z,1032.88
2023-01-23T07:40:47.609Z,1032.87
2023-01-23T07:41:47.483Z,1032.85
2023-01-23T07:42:47.481Z,1032.89
2023-01-23T07:43:47.471Z,1032.89
2023-01-23T07:44:47.469Z,1032.88
2023-01-23T07:45:47.465Z,1032.93
2023-01-23T07:46:47.570Z,1032.88
2023-01-23T07:47:47.451Z,1032.98
2023-01-23T07:48:47.455Z,1032.97
2023-01-23T07:49:47.440Z,1032.97
2023-01-23T07:50:47.438Z,1033.01
2023-01-23T07:51:47.430Z,1033.00
2023-01-23T07:52:47.429Z,1032.96
2023-01-23T07:53:47.416Z,1032.96
2023-01-23T07:54:47.414Z,1032.98
2023-01-23T07:55:47.429Z,1032.97
2023-01-23T07:56:47.523Z,1032.96
2023-01-23T07:57:47.398Z,1032.95
2023-01-23T07:58:47.387Z,1032.91
2023-01-23T07:59:47.388Z,1032.92
2023-01-23T08:00:47.406Z,1032.90
2023-01-23T08:01:47.379Z,1032.90
2023-01-23T08:02:47.370Z,1032.96
2023-01-23T08:03:47.425Z,1032.93
2023-01-23T08:04:47.365Z,1032.90
2023-01-23T08:05:47.376Z,1032.99
2023-01-23T08:06:47.351Z,1032.97
2023-01-23T08:07:47.352Z,1033.01
2023-01-23T08:08:47.344Z,1032.99
2023-01-23T08:09:47.337Z,1032.99
2023-01-23T08:10:47.330Z,1033.02
2023-01-23T08:11:47.323Z,1033.01
2023-01-23T08:12:47.428Z,1032.99
2023-01-23T08:13:47.320Z,1032.99
2023-01-23T08:14:47.362Z,1032.97
2023-01-23T08:15:47.310Z,1033.00
2023-01-23T08:16:47.302Z,1033.01
2023-01-23T08:17:47.293Z,1033.03
2023-01-23T08:18:47.279Z,1033.07
2023-01-23T08:19:47.288Z,1033.07
2023-01-23T08:20:47.278Z,1033.11
2023-01-23T08:21:47.295Z,1033.05
2023-01-23T08:22:47.260Z,1033.11
2023-01-23T08:23:47.271Z,1033.15
2023-01-23T08:24:47.253Z,1033.17
2023-01-23T08:25:47.248Z,1033.19
2023-01-23T08:26:47.239Z,1033.18
2023-01-23T08:27:47.248Z,1033.19
2023-01-23T08:28:47.357Z,1033.24
2023-01-23T08:29:47.231Z,1033.23
2023-01-23T08:30:47.239Z,1033.24
2023-01-23T08:31:47.266Z,1033.23
2023-01-23T08:32:47.211Z,1033.24
2023-01-23T08:33:47.213Z,1033.27
2023-01-23T08:34:47.203Z,1033.26
2023-01-23T08:35:47.198Z,1033.29
2023-01-23T08:36:47.191Z,1033.31
2023-01-23T08:37:47.192Z,1033.30
2023-01-23T08:38:47.174Z,1033.34
2023-01-23T08:39:47.185Z,1033.33
2023-01-23T08:40:47.170Z,1033.39
2023-01-23T08:41:47.179Z,1033.38
2023-01-23T08:42:47.169Z,1033.40
2023-01-23T08:43:47.158Z,1033.45
2023-01-23T08:44:47.267Z,1033.47
2023-01-23T08:45:47.204Z,1033.49
2023-01-23T08:46:47.137Z,1033.52
2023-01-23T08:47:47.134Z,1033.52
2023-01-23T08:48:47.133Z,1033.56
2023-01-23T08:49:47.120Z,1033.53
2023-01-23T08:50:47.111Z,1033.57
2023-01-23T08:51:47.113Z,1033.62
2023-01-23T08:52:47.107Z,1033.62
2023-01-23T08:53:47.096Z,1033.61
2023-01-23T08:54:47.097Z,1033.61
2023-01-23T08:55:47.102Z,1033.66
2023-01-23T08:56:47.084Z,1033.67
2023-01-23T08:57:47.076Z,1033.64
2023-01-23T08:58:47.070Z,1033.66
2023-01-23T08:59:47.069Z,1033.69
2023-01-23T09:00:47.215Z,1033.70
2023-01-23T09:01:47.093Z,1033.69
2023-01-23T09:02:47.048Z,1033.71
2023-01-23T09:03:47.046Z,1033.74
2023-01-23T09:04:47.037Z,1033.74
2023-01-23T09:05:47.030Z,1033.78
2023-01-23T09:06:47.025Z,1033.79
2023-01-23T09:07:47.030Z,1033.79
2023-01-23T09:08:47.013Z,1033.76
2023-01-23T09:09:47.025Z,1033.85
2023-01-23T09:10:47.010Z,1033.84
2023-01-23T09:11:47.002Z,1033.85
2023-01-23T09:12:46.995Z,1033.92
2023-01-23T09:13:47.005Z,1033.92
2023-01-23T09:14:46.984Z,1033.92
2023-01-23T09:15:47.006Z,1033.93
2023-01-23T09:16:47.192Z,1033.93
2023-01-23T09:17:46.979Z,1033.93
2023-01-23T09:18:46.967Z,1033.95
2023-01-23T09:19:46.963Z,1033.92
2023-01-23T09:20:46.952Z,1033.94
2023-01-23T09:21:46.957Z,1033.96
2023-01-23T09:22:46.964Z,1033.95
2023-01-23T09:23:46.947Z,1033.98
2023-01-23T09:24:46.927Z,1033.98
2023-01-23T09:25:46.939Z,1034.00
2023-01-23T09:26:46.916Z,1034.01
2023-01-23T09:27:46.916Z,1034.00
2023-01-23T09:28:46.908Z,1034.04
2023-01-23T09:29:46.906Z,1034.10
2023-01-23T09:30:46.976Z,1034.07
2023-01-23T09:31:46.946Z,1034.12
2023-01-23T09:32:47.009Z,1034.13
2023-01-23T09:33:46.898Z,1034.15
2023-01-23T09:34:46.876Z,1034.10
2023-01-23T09:35:46.877Z,1034.15
2023-01-23T09:36:46.872Z,1034.15
2023-01-23T09:37:46.883Z,1034.17
2023-01-23T09:38:46.850Z,1034.19
2023-01-23T09:39:46.864Z,1034.17
2023-01-23T09:40:46.855Z,1034.16
2023-01-23T09:41:46.864Z,1034.16
2023-01-23T09:42:46.837Z,1034.14
2023-01-23T09:43:46.833Z,1034.14
2023-01-23T09:44:46.838Z,1034.10
2023-01-23T09:45:46.852Z,1034.11
2023-01-23T09:46:46.821Z,1034.08
2023-01-23T09:47:46.820Z,1034.07
2023-01-23T09:48:46.939Z,1034.11
2023-01-23T09:49:46.815Z,1034.10
2023-01-23T09:50:46.799Z,1034.09
2023-01-23T09:51:46.790Z,1034.15
2023-01-23T09:52:46.776Z,1034.11
2023-01-23T09:53:46.778Z,1034.12
2023-01-23T09:54:46.790Z,1034.13
2023-01-23T09:55:46.798Z,1034.14
2023-01-23T09:56:46.765Z,1034.13
2023-01-23T09:57:46.762Z,1034.13
2023-01-23T09:58:46.754Z,1034.17
2023-01-23T09:59:58.821Z,1034.17
2023-01-23T10:00:46.799Z,1034.15
2023-01-23T10:01:46.740Z,1034.12
2023-01-23T10:02:46.898Z,1034.15
2023-01-23T10:03:46.724Z,1034.13
2023-01-23T10:04:46.834Z,1034.15
2023-01-23T10:05:46.716Z,1034.12
2023-01-23T10:06:46.708Z,1034.13
2023-01-23T10:07:46.710Z,1034.14
2023-01-23T10:08:46.707Z,1034.18
2023-01-23T10:09:46.694Z,1034.17
2023-01-23T10:10:46.696Z,1034.16
2023-01-23T10:11:46.690Z,1034.17
2023-01-23T10:12:46.682Z,1034.15
2023-01-23T10:13:46.671Z,1034.18
2023-01-23T10:14:46.668Z,1034.20
2023-01-23T10:15:46.660Z,1034.20
2023-01-23T10:16:50.906Z,1034.20
2023-01-23T10:17:46.656Z,1034.20
2023-01-23T10:18:46.648Z,1034.15
2023-01-23T10:19:46.646Z,1034.15
2023-01-23T10:20:46.744Z,1034.15
2023-01-23T10:21:46.637Z,1034.16
2023-01-23T10:22:46.625Z,1034.19
2023-01-23T10:23:46.624Z,1034.17
2023-01-23T10:24:46.613Z,1034.16
2023-01-23T10:25:46.612Z,1034.24
2023-01-23T10:26:46.614Z,1034.24
2023-01-23T10:27:46.601Z,1034.25
2023-01-23T10:28:46.595Z,1034.24
2023-01-23T10:29:46.592Z,1034.23
2023-01-23T10:30:46.662Z,1034.27
2023-01-23T10:31:46.686Z,1034.29
2023-01-23T10:32:46.592Z,1034.28
2023-01-23T10:33:46.573Z,1034.31
2023-01-23T10:34:46.564Z,1034.33
2023-01-23T10:35:46.563Z,1034.29
2023-01-23T10:36:54.267Z,1034.32
2023-01-23T10:37:46.542Z,1034.34
2023-01-23T10:38:46.564Z,1034.35
2023-01-23T10:39:46.542Z,1034.35
2023-01-23T10:40:46.539Z,1034.31
2023-01-23T10:41:51.181Z,1034.36
2023-01-23T10:42:46.521Z,1034.34
2023-01-23T10:43:46.519Z,1034.33
2023-01-23T10:44:46.519Z,1034.32
2023-01-23T10:45:46.611Z,1034.33
2023-01-23T10:46:46.505Z,1034.32
2023-01-23T10:47:52.042Z,1034.31
2023-01-23T10:48:46.507Z,1034.37
2023-01-23T10:49:46.493Z,1034.33
2023-01-23T10:50:46.480Z,1034.34
2023-01-23T10:51:46.485Z,1034.31
2023-01-23T10:52:46.605Z,1034.32
2023-01-23T10:53:46.476Z,1034.28
2023-01-23T10:54:46.469Z,1034.28
2023-01-23T10:55:46.478Z,1034.27
2023-01-23T10:56:46.461Z,1034.29
2023-01-23T10:57:46.470Z,1034.28
2023-01-23T10:58:46.445Z,1034.28
2023-01-23T10:59:46.442Z,1034.29
2023-01-23T11:00:46.441Z,1034.26
2023-01-23T11:01:56.743Z,1034.31
2023-01-23T11:02:46.487Z,1034.26
2023-01-23T11:03:46.421Z,1034.24
2023-01-23T11:04:46.409Z,1034.32
2023-01-23T11:05:52.984Z,1034.29
2023-01-23T11:06:46.397Z,1034.31
2023-01-23T11:07:46.400Z,1034.26
2023-01-23T11:08:46.515Z,1034.30
2023-01-23T11:09:46.392Z,1034.29
2023-01-23T11:10:46.404Z,1034.28
2023-01-23T11:11:46.382Z,1034.32
2023-01-23T11:12:46.370Z,1034.25
2023-01-23T11:13:46.389Z,1034.30
2023-01-23T11:14:46.361Z,1034.26
2023-01-23T11:15:46.467Z,1034.31
2023-01-23T11:16:46.354Z,1034.26
2023-01-23T11:17:46.359Z,1034.25
2023-01-23T11:18:46.344Z,1034.25
2023-01-23T11:19:46.337Z,1034.20
2023-01-23T11:20:46.332Z,1034.17
2023-01-23T11:21:46.329Z,1034.20
2023-01-23T11:22:46.331Z,1034.19
2023-01-23T11:23:46.325Z,1034.13
2023-01-23T11:24:46.443Z,1034.18
2023-01-23T11:25:46.317Z,1034.18
2023-01-23T11:26:46.303Z,1034.19
2023-01-23T11:27:46.306Z,1034.17
2023-01-23T11:28:46.294Z,1034.18
2023-01-23T11:29:46.295Z,1034.17
2023-01-23T11:30:46.411Z,1034.19
2023-01-23T11:31:46.571Z,1034.15
2023-01-23T11:32:46.276Z,1034.22
2023-01-23T11:33:46.271Z,1034.19
2023-01-23T11:34:46.276Z,1034.19
2023-01-23T11:35:46.263Z,1034.18
2023-01-23T11:36:46.270Z,1034.19
2023-01-23T11:37:46.260Z,1034.19
2023-01-23T11:38:52.470Z,1034.14
2023-01-23T11:39:46.267Z,1034.14
2023-01-23T11:40:46.348Z,1034.11
2023-01-23T11:41:46.289Z,1034.11
2023-01-23T11:42:46.250Z,1034.09
2023-01-23T11:43:46.234Z,1034.11
2023-01-23T11:44:46.842Z,1034.09
2023-01-23T11:45:46.215Z,1034.08
2023-01-23T11:46:46.204Z,1034.12
2023-01-23T11:47:46.205Z,1034.07
2023-01-23T11:48:46.199Z,1034.07
2023-01-23T11:49:46.196Z,1034.10
2023-01-23T11:50:54.916Z,1034.08
2023-01-23T11:51:46.192Z,1034.11
2023-01-23T11:52:46.191Z,1034.09
2023-01-23T11:53:46.246Z,1034.09
2023-01-23T11:54:46.173Z,1034.08
2023-01-23T11:55:46.168Z,1034.08
2023-01-23T11:56:46.278Z,1034.09
2023-01-23T11:57:46.160Z,1034.03
2023-01-23T11:58:50.353Z,1034.06
2023-01-23T11:59:46.159Z,1034.04
2023-01-23T12:00:46.524Z,1034.01
2023-01-23T12:01:55.012Z,1033.99
2023-01-23T12:02:46.170Z,1034.00
2023-01-23T12:03:46.222Z,1034.04
2023-01-23T12:04:46.122Z,1034.02
2023-01-23T12:05:46.122Z,1034.03